CPX103 Details

Departure: Ted Stevens Anchorage International Airport (PANC)
Arrival: Huntsville International Airport (KHSV) at N/A
Route: TED YESKA NCA13 YXY J515 YYE J537 YPE J601 XD YWV J475 VLN J483 MOT ABR Q19 DSM J45 IRK FAM J151 VUZ
Notes:


Current Weather Information
PANC 231353Z 31005KT 10SM SCT050 OVC060 04/01 A2928 RMK AO2 SLP917 T00390011
KHSV 231353Z 00000KT 10SM CLR 10/07 A3020 RMK AO2 SLP225 T01000072 $